sensor_id;sensor_type;location;lat;lon;timestamp;temperature;humidity
66213;SHT31;53015;50.046;8.238;2024-02-21T00:00:56;9.15;86.89
66213;SHT31;53015;50.046;8.238;2024-02-21T00:03:22;9.20;86.78
66213;SHT31;53015;50.046;8.238;2024-02-21T00:05:48;9.27;86.65
66213;SHT31;53015;50.046;8.238;2024-02-21T00:08:14;9.17;86.72
66213;SHT31;53015;50.046;8.238;2024-02-21T00:10:39;8.94;86.59
66213;SHT31;53015;50.046;8.238;2024-02-21T00:13:05;9.07;86.30
66213;SHT31;53015;50.046;8.238;2024-02-21T00:15:30;9.05;86.58
66213;SHT31;53015;50.046;8.238;2024-02-21T00:17:57;9.04;87.04
66213;SHT31;53015;50.046;8.238;2024-02-21T00:20:22;8.96;87.38
66213;SHT31;53015;50.046;8.238;2024-02-21T00:22:48;8.96;87.33
66213;SHT31;53015;50.046;8.238;2024-02-21T00:25:13;9.10;87.57
66213;SHT31;53015;50.046;8.238;2024-02-21T00:27:39;9.24;87.54
66213;SHT31;53015;50.046;8.238;2024-02-21T00:30:05;9.17;88.14
66213;SHT31;53015;50.046;8.238;2024-02-21T00:32:31;9.20;86.95
66213;SHT31;53015;50.046;8.238;2024-02-21T00:34:58;9.18;86.86
66213;SHT31;53015;50.046;8.238;2024-02-21T00:37:23;9.11;87.84
66213;SHT31;53015;50.046;8.238;2024-02-21T00:39:52;9.11;88.01
66213;SHT31;53015;50.046;8.238;2024-02-21T00:42:18;9.15;87.66
66213;SHT31;53015;50.046;8.238;2024-02-21T00:44:44;9.20;87.50
66213;SHT31;53015;50.046;8.238;2024-02-21T00:47:10;9.11;87.63
66213;SHT31;53015;50.046;8.238;2024-02-21T00:49:35;9.14;87.50
66213;SHT31;53015;50.046;8.238;2024-02-21T00:52:02;9.21;86.66
66213;SHT31;53015;50.046;8.238;2024-02-21T00:54:28;9.05;86.14
66213;SHT31;53015;50.046;8.238;2024-02-21T00:56:54;9.10;86.43
66213;SHT31;53015;50.046;8.238;2024-02-21T00:59:19;8.96;86.54
66213;SHT31;53015;50.046;8.238;2024-02-21T01:01:45;8.81;87.29
66213;SHT31;53015;50.046;8.238;2024-02-21T01:04:11;8.81;87.25
66213;SHT31;53015;50.046;8.238;2024-02-21T01:06:36;8.88;87.72
66213;SHT31;53015;50.046;8.238;2024-02-21T01:09:03;8.86;86.65
66213;SHT31;53015;50.046;8.238;2024-02-21T01:11:29;8.86;86.52
66213;SHT31;53015;50.046;8.238;2024-02-21T01:13:55;8.93;87.31
66213;SHT31;53015;50.046;8.238;2024-02-21T01:16:20;8.83;87.32
66213;SHT31;53015;50.046;8.238;2024-02-21T01:18:46;8.86;87.46
66213;SHT31;53015;50.046;8.238;2024-02-21T01:21:11;8.77;87.47
66213;SHT31;53015;50.046;8.238;2024-02-21T01:23:37;8.63;87.52
66213;SHT31;53015;50.046;8.238;2024-02-21T01:26:04;8.53;88.26
66213;SHT31;53015;50.046;8.238;2024-02-21T01:28:30;8.35;88.36
66213;SHT31;53015;50.046;8.238;2024-02-21T01:30:55;8.45;88.73
66213;SHT31;53015;50.046;8.238;2024-02-21T01:33:21;8.56;88.31
66213;SHT31;53015;50.046;8.238;2024-02-21T01:35:47;8.66;88.11
66213;SHT31;53015;50.046;8.238;2024-02-21T01:38:13;8.76;88.20
66213;SHT31;53015;50.046;8.238;2024-02-21T01:40:38;8.79;87.69
66213;SHT31;53015;50.046;8.238;2024-02-21T01:43:15;8.83;87.70
66213;SHT31;53015;50.046;8.238;2024-02-21T01:45:41;8.87;87.66
66213;SHT31;53015;50.046;8.238;2024-02-21T01:48:07;8.93;87.66
66213;SHT31;53015;50.046;8.238;2024-02-21T01:50:33;8.87;87.23
66213;SHT31;53015;50.046;8.238;2024-02-21T01:52:59;8.81;87.51
66213;SHT31;53015;50.046;8.238;2024-02-21T01:55:25;8.75;87.82
66213;SHT31;53015;50.046;8.238;2024-02-21T01:57:51;8.67;88.12
66213;SHT31;53015;50.046;8.238;2024-02-21T02:00:18;8.62;88.67
66213;SHT31;53015;50.046;8.238;2024-02-21T02:02:45;8.56;89.00
66213;SHT31;53015;50.046;8.238;2024-02-21T02:05:11;8.56;88.23
66213;SHT31;53015;50.046;8.238;2024-02-21T02:07:36;8.44;88.74
66213;SHT31;53015;50.046;8.238;2024-02-21T02:10:02;8.42;89.21
66213;SHT31;53015;50.046;8.238;2024-02-21T02:12:28;8.48;89.00
66213;SHT31;53015;50.046;8.238;2024-02-21T02:14:58;8.56;88.75
66213;SHT31;53015;50.046;8.238;2024-02-21T02:17:25;8.63;88.91
66213;SHT31;53015;50.046;8.238;2024-02-21T02:19:50;8.46;89.09
66213;SHT31;53015;50.046;8.238;2024-02-21T02:22:20;8.46;89.41
66213;SHT31;53015;50.046;8.238;2024-02-21T02:24:48;8.44;89.43
66213;SHT31;53015;50.046;8.238;2024-02-21T02:27:14;8.38;89.07
66213;SHT31;53015;50.046;8.238;2024-02-21T02:29:40;8.12;89.60
66213;SHT31;53015;50.046;8.238;2024-02-21T02:32:06;7.95;90.29
66213;SHT31;53015;50.046;8.238;2024-02-21T02:34:31;7.84;90.49
66213;SHT31;53015;50.046;8.238;2024-02-21T02:36:57;7.84;90.84
66213;SHT31;53015;50.046;8.238;2024-02-21T02:39:22;7.93;91.06
66213;SHT31;53015;50.046;8.238;2024-02-21T02:41:49;8.05;90.83
66213;SHT31;53015;50.046;8.238;2024-02-21T02:44:14;8.18;90.27
66213;SHT31;53015;50.046;8.238;2024-02-21T02:46:40;8.22;89.69
66213;SHT31;53015;50.046;8.238;2024-02-21T02:49:05;8.08;90.50
66213;SHT31;53015;50.046;8.238;2024-02-21T02:51:31;8.14;90.80
66213;SHT31;53015;50.046;8.238;2024-02-21T02:53:56;7.98;90.94
66213;SHT31;53015;50.046;8.238;2024-02-21T02:56:22;7.79;90.75
66213;SHT31;53015;50.046;8.238;2024-02-21T02:58:49;7.67;91.24
66213;SHT31;53015;50.046;8.238;2024-02-21T03:01:14;7.58;91.59
66213;SHT31;53015;50.046;8.238;2024-02-21T03:03:40;7.58;91.56
66213;SHT31;53015;50.046;8.238;2024-02-21T03:06:05;7.51;92.27
66213;SHT31;53015;50.046;8.238;2024-02-21T03:08:31;7.74;91.71
66213;SHT31;53015;50.046;8.238;2024-02-21T03:10:56;8.01;91.04
66213;SHT31;53015;50.046;8.238;2024-02-21T03:13:22;8.07;91.00
66213;SHT31;53015;50.046;8.238;2024-02-21T03:15:50;8.10;91.35
66213;SHT31;53015;50.046;8.238;2024-02-21T03:18:15;8.12;90.56
66213;SHT31;53015;50.046;8.238;2024-02-21T03:20:41;8.22;90.95
66213;SHT31;53015;50.046;8.238;2024-02-21T03:23:06;8.10;90.95
66213;SHT31;53015;50.046;8.238;2024-02-21T03:25:32;8.38;91.08
66213;SHT31;53015;50.046;8.238;2024-02-21T03:27:57;8.22;90.71
66213;SHT31;53015;50.046;8.238;2024-02-21T03:30:22;8.14;91.31
66213;SHT31;53015;50.046;8.238;2024-02-21T03:32:49;8.35;90.58
66213;SHT31;53015;50.046;8.238;2024-02-21T03:35:15;8.45;89.56
66213;SHT31;53015;50.046;8.238;2024-02-21T03:37:41;8.53;89.56
66213;SHT31;53015;50.046;8.238;2024-02-21T03:40:08;8.41;89.04
66213;SHT31;53015;50.046;8.238;2024-02-21T03:42:33;8.42;89.90
66213;SHT31;53015;50.046;8.238;2024-02-21T03:44:59;8.21;90.60
66213;SHT31;53015;50.046;8.238;2024-02-21T03:47:24;8.24;90.47
66213;SHT31;53015;50.046;8.238;2024-02-21T03:49:51;8.27;90.05
66213;SHT31;53015;50.046;8.238;2024-02-21T03:52:17;8.32;89.95
66213;SHT31;53015;50.046;8.238;2024-02-21T03:54:42;8.38;89.85
66213;SHT31;53015;50.046;8.238;2024-02-21T03:57:07;8.34;89.21
66213;SHT31;53015;50.046;8.238;2024-02-21T03:59:33;8.32;89.15
66213;SHT31;53015;50.046;8.238;2024-02-21T04:01:58;8.27;89.59
66213;SHT31;53015;50.046;8.238;2024-02-21T04:04:24;8.42;88.88
66213;SHT31;53015;50.046;8.238;2024-02-21T04:06:51;8.41;88.75
66213;SHT31;53015;50.046;8.238;2024-02-21T04:09:17;8.39;88.58
66213;SHT31;53015;50.046;8.238;2024-02-21T04:11:43;8.46;88.44
66213;SHT31;53015;50.046;8.238;2024-02-21T04:14:08;8.42;87.36
66213;SHT31;53015;50.046;8.238;2024-02-21T04:16:34;8.38;87.03
66213;SHT31;53015;50.046;8.238;2024-02-21T04:18:59;8.39;88.32
66213;SHT31;53015;50.046;8.238;2024-02-21T04:21:25;8.27;88.10
66213;SHT31;53015;50.046;8.238;2024-02-21T04:23:52;8.34;88.44
66213;SHT31;53015;50.046;8.238;2024-02-21T04:26:17;8.48;88.30
66213;SHT31;53015;50.046;8.238;2024-02-21T04:28:44;8.58;88.11
66213;SHT31;53015;50.046;8.238;2024-02-21T04:31:10;8.53;87.08
66213;SHT31;53015;50.046;8.238;2024-02-21T04:33:35;8.35;88.14
66213;SHT31;53015;50.046;8.238;2024-02-21T04:36:01;8.28;88.74
66213;SHT31;53015;50.046;8.238;2024-02-21T04:38:26;8.11;88.80
66213;SHT31;53015;50.046;8.238;2024-02-21T04:40:53;8.28;89.20
66213;SHT31;53015;50.046;8.238;2024-02-21T04:43:19;8.25;88.66
66213;SHT31;53015;50.046;8.238;2024-02-21T04:45:44;8.38;88.25
66213;SHT31;53015;50.046;8.238;2024-02-21T04:48:10;8.15;88.96
66213;SHT31;53015;50.046;8.238;2024-02-21T04:50:35;8.18;88.93
66213;SHT31;53015;50.046;8.238;2024-02-21T04:53:01;8.21;88.53
66213;SHT31;53015;50.046;8.238;2024-02-21T04:55:26;8.08;88.76
66213;SHT31;53015;50.046;8.238;2024-02-21T04:57:53;7.86;89.30
66213;SHT31;53015;50.046;8.238;2024-02-21T05:00:19;7.91;90.03
66213;SHT31;53015;50.046;8.238;2024-02-21T05:02:44;7.94;90.10
66213;SHT31;53015;50.046;8.238;2024-02-21T05:05:10;7.97;89.51
66213;SHT31;53015;50.046;8.238;2024-02-21T05:07:35;7.95;89.64
66213;SHT31;53015;50.046;8.238;2024-02-21T05:10:01;8.03;89.59
66213;SHT31;53015;50.046;8.238;2024-02-21T05:12:27;8.08;89.00
66213;SHT31;53015;50.046;8.238;2024-02-21T05:14:54;7.94;89.22
66213;SHT31;53015;50.046;8.238;2024-02-21T05:17:19;7.83;88.83
66213;SHT31;53015;50.046;8.238;2024-02-21T05:19:45;7.67;89.87
66213;SHT31;53015;50.046;8.238;2024-02-21T05:22:11;7.65;89.86
66213;SHT31;53015;50.046;8.238;2024-02-21T05:24:36;7.69;90.05
66213;SHT31;53015;50.046;8.238;2024-02-21T05:27:04;7.66;89.43
66213;SHT31;53015;50.046;8.238;2024-02-21T05:29:29;7.83;89.22
66213;SHT31;53015;50.046;8.238;2024-02-21T05:31:57;7.84;89.04
66213;SHT31;53015;50.046;8.238;2024-02-21T05:34:22;7.84;89.04
66213;SHT31;53015;50.046;8.238;2024-02-21T05:36:48;7.90;89.20
66213;SHT31;53015;50.046;8.238;2024-02-21T05:39:13;7.76;89.99
66213;SHT31;53015;50.046;8.238;2024-02-21T05:41:39;7.70;90.01
66213;SHT31;53015;50.046;8.238;2024-02-21T05:44:04;7.51;90.37
66213;SHT31;53015;50.046;8.238;2024-02-21T05:46:30;7.46;90.54
66213;SHT31;53015;50.046;8.238;2024-02-21T05:48:57;7.44;90.84
66213;SHT31;53015;50.046;8.238;2024-02-21T05:51:22;7.44;91.06
66213;SHT31;53015;50.046;8.238;2024-02-21T05:53:48;7.42;90.51
66213;SHT31;53015;50.046;8.238;2024-02-21T05:56:14;7.38;90.92
66213;SHT31;53015;50.046;8.238;2024-02-21T05:58:40;7.38;91.02
66213;SHT31;53015;50.046;8.238;2024-02-21T06:01:05;7.48;90.92
66213;SHT31;53015;50.046;8.238;2024-02-21T06:03:31;7.36;90.80
66213;SHT31;53015;50.046;8.238;2024-02-21T06:05:58;7.36;91.25
66213;SHT31;53015;50.046;8.238;2024-02-21T06:08:24;7.31;91.14
66213;SHT31;53015;50.046;8.238;2024-02-21T06:10:49;7.28;91.23
66213;SHT31;53015;50.046;8.238;2024-02-21T06:13:15;7.18;90.86
66213;SHT31;53015;50.046;8.238;2024-02-21T06:15:41;7.19;91.27
66213;SHT31;53015;50.046;8.238;2024-02-21T06:18:06;7.18;91.31
66213;SHT31;53015;50.046;8.238;2024-02-21T06:20:32;7.12;91.47
66213;SHT31;53015;50.046;8.238;2024-02-21T06:22:58;7.04;91.38
66213;SHT31;53015;50.046;8.238;2024-02-21T06:25:24;7.12;91.75
66213;SHT31;53015;50.046;8.238;2024-02-21T06:27:49;7.10;91.63
66213;SHT31;53015;50.046;8.238;2024-02-21T06:30:15;7.03;91.56
66213;SHT31;53015;50.046;8.238;2024-02-21T06:32:40;7.03;91.17
66213;SHT31;53015;50.046;8.238;2024-02-21T06:35:06;7.08;91.14
66213;SHT31;53015;50.046;8.238;2024-02-21T06:37:31;7.12;89.89
66213;SHT31;53015;50.046;8.238;2024-02-21T06:39:58;7.14;90.69
66213;SHT31;53015;50.046;8.238;2024-02-21T06:42:24;7.12;90.60
66213;SHT31;53015;50.046;8.238;2024-02-21T06:44:49;7.34;89.60
66213;SHT31;53015;50.046;8.238;2024-02-21T06:47:15;7.25;89.57
66213;SHT31;53015;50.046;8.238;2024-02-21T06:49:40;7.29;89.49
66213;SHT31;53015;50.046;8.238;2024-02-21T06:52:06;7.28;89.49
66213;SHT31;53015;50.046;8.238;2024-02-21T06:54:31;7.36;89.63
66213;SHT31;53015;50.046;8.238;2024-02-21T06:56:58;7.39;89.21
66213;SHT31;53015;50.046;8.238;2024-02-21T06:59:24;7.42;89.33
66213;SHT31;53015;50.046;8.238;2024-02-21T07:01:54;7.58;88.62
66213;SHT31;53015;50.046;8.238;2024-02-21T07:04:20;7.59;88.40
66213;SHT31;53015;50.046;8.238;2024-02-21T07:06:45;7.65;87.77
66213;SHT31;53015;50.046;8.238;2024-02-21T07:09:11;7.69;88.30
66213;SHT31;53015;50.046;8.238;2024-02-21T07:11:36;7.87;88.07
66213;SHT31;53015;50.046;8.238;2024-02-21T07:14:03;7.94;87.37
66213;SHT31;53015;50.046;8.238;2024-02-21T07:16:28;8.08;87.28
66213;SHT31;53015;50.046;8.238;2024-02-21T07:18:55;8.20;85.92
66213;SHT31;53015;50.046;8.238;2024-02-21T07:21:20;8.25;85.70
66213;SHT31;53015;50.046;8.238;2024-02-21T07:23:46;8.31;85.77
66213;SHT31;53015;50.046;8.238;2024-02-21T07:26:12;8.35;85.53
66213;SHT31;53015;50.046;8.238;2024-02-21T07:28:37;8.41;85.22
66213;SHT31;53015;50.046;8.238;2024-02-21T07:31:04;8.42;84.91
66213;SHT31;53015;50.046;8.238;2024-02-21T07:33:29;8.42;85.77
66213;SHT31;53015;50.046;8.238;2024-02-21T07:35:55;8.49;85.68
66213;SHT31;53015;50.046;8.238;2024-02-21T07:38:20;8.56;85.36
66213;SHT31;53015;50.046;8.238;2024-02-21T07:40:46;8.56;86.02
66213;SHT31;53015;50.046;8.238;2024-02-21T07:43:11;8.65;85.51
66213;SHT31;53015;50.046;8.238;2024-02-21T07:45:37;8.72;84.19
66213;SHT31;53015;50.046;8.238;2024-02-21T07:48:05;8.75;83.28
66213;SHT31;53015;50.046;8.238;2024-02-21T07:50:33;8.80;83.54
66213;SHT31;53015;50.046;8.238;2024-02-21T07:52:59;8.88;83.57
66213;SHT31;53015;50.046;8.238;2024-02-21T07:55:24;8.99;82.98
66213;SHT31;53015;50.046;8.238;2024-02-21T07:57:50;9.01;82.66
66213;SHT31;53015;50.046;8.238;2024-02-21T08:00:16;8.93;83.10
66213;SHT31;53015;50.046;8.238;2024-02-21T08:02:41;8.99;83.42
66213;SHT31;53015;50.046;8.238;2024-02-21T08:05:09;9.04;82.70
66213;SHT31;53015;50.046;8.238;2024-02-21T08:07:34;9.01;82.26
66213;SHT31;53015;50.046;8.238;2024-02-21T08:10:00;9.08;83.00
66213;SHT31;53015;50.046;8.238;2024-02-21T08:12:25;9.05;83.01
66213;SHT31;53015;50.046;8.238;2024-02-21T08:14:50;9.17;82.58
66213;SHT31;53015;50.046;8.238;2024-02-21T08:17:16;9.18;81.84
66213;SHT31;53015;50.046;8.238;2024-02-21T08:19:41;9.14;82.34
66213;SHT31;53015;50.046;8.238;2024-02-21T08:22:08;9.04;82.54
66213;SHT31;53015;50.046;8.238;2024-02-21T08:24:34;9.11;83.25
66213;SHT31;53015;50.046;8.238;2024-02-21T08:26:59;9.17;82.32
66213;SHT31;53015;50.046;8.238;2024-02-21T08:29:25;9.18;82.74
66213;SHT31;53015;50.046;8.238;2024-02-21T08:31:50;9.21;82.85
66213;SHT31;53015;50.046;8.238;2024-02-21T08:34:16;9.30;82.16
66213;SHT31;53015;50.046;8.238;2024-02-21T08:36:41;9.41;81.83
66213;SHT31;53015;50.046;8.238;2024-02-21T08:39:08;9.39;81.21
66213;SHT31;53015;50.046;8.238;2024-02-21T08:41:34;9.35;81.02
66213;SHT31;53015;50.046;8.238;2024-02-21T08:43:59;9.28;80.85
66213;SHT31;53015;50.046;8.238;2024-02-21T08:46:25;9.36;80.53
66213;SHT31;53015;50.046;8.238;2024-02-21T08:48:51;9.32;80.34
66213;SHT31;53015;50.046;8.238;2024-02-21T08:51:16;9.31;80.02
66213;SHT31;53015;50.046;8.238;2024-02-21T08:53:43;9.32;80.57
66213;SHT31;53015;50.046;8.238;2024-02-21T08:56:10;9.46;80.75
66213;SHT31;53015;50.046;8.238;2024-02-21T08:58:36;9.58;79.76
66213;SHT31;53015;50.046;8.238;2024-02-21T09:01:01;9.65;79.71
66213;SHT31;53015;50.046;8.238;2024-02-21T09:03:27;9.80;79.36
66213;SHT31;53015;50.046;8.238;2024-02-21T09:05:53;9.83;78.52
66213;SHT31;53015;50.046;8.238;2024-02-21T09:08:18;9.90;78.82
66213;SHT31;53015;50.046;8.238;2024-02-21T09:10:44;9.98;77.93
66213;SHT31;53015;50.046;8.238;2024-02-21T09:13:11;9.93;78.00
66213;SHT31;53015;50.046;8.238;2024-02-21T09:15:36;9.90;77.97
66213;SHT31;53015;50.046;8.238;2024-02-21T09:18:02;10.06;78.08
66213;SHT31;53015;50.046;8.238;2024-02-21T09:20:28;10.24;78.11
66213;SHT31;53015;50.046;8.238;2024-02-21T09:22:53;10.30;76.94
66213;SHT31;53015;50.046;8.238;2024-02-21T09:25:19;10.42;77.10
66213;SHT31;53015;50.046;8.238;2024-02-21T09:27:44;10.44;76.74
66213;SHT31;53015;50.046;8.238;2024-02-21T09:30:12;10.62;77.05
66213;SHT31;53015;50.046;8.238;2024-02-21T09:32:38;10.69;76.06
66213;SHT31;53015;50.046;8.238;2024-02-21T09:35:04;10.77;75.76
66213;SHT31;53015;50.046;8.238;2024-02-21T09:37:29;10.58;74.95
66213;SHT31;53015;50.046;8.238;2024-02-21T09:39:55;10.31;76.05
66213;SHT31;53015;50.046;8.238;2024-02-21T09:42:21;10.24;76.33
66213;SHT31;53015;50.046;8.238;2024-02-21T09:44:46;10.35;76.67
66213;SHT31;53015;50.046;8.238;2024-02-21T09:47:19;10.42;76.65
66213;SHT31;53015;50.046;8.238;2024-02-21T09:49:45;10.37;76.15
66213;SHT31;53015;50.046;8.238;2024-02-21T09:52:12;10.45;75.64
66213;SHT31;53015;50.046;8.238;2024-02-21T09:54:39;10.52;75.67
66213;SHT31;53015;50.046;8.238;2024-02-21T09:57:06;10.68;75.56
66213;SHT31;53015;50.046;8.238;2024-02-21T09:59:32;10.82;75.85
66213;SHT31;53015;50.046;8.238;2024-02-21T10:01:58;10.93;74.96
66213;SHT31;53015;50.046;8.238;2024-02-21T10:04:25;10.96;74.39
66213;SHT31;53015;50.046;8.238;2024-02-21T10:06:51;11.00;74.90
66213;SHT31;53015;50.046;8.238;2024-02-21T10:09:22;11.11;75.09
66213;SHT31;53015;50.046;8.238;2024-02-21T10:11:48;11.03;74.60
66213;SHT31;53015;50.046;8.238;2024-02-21T10:14:15;11.14;73.53
66213;SHT31;53015;50.046;8.238;2024-02-21T10:16:40;11.18;73.78
66213;SHT31;53015;50.046;8.238;2024-02-21T10:19:06;11.06;73.27
66213;SHT31;53015;50.046;8.238;2024-02-21T10:21:32;11.06;73.36
66213;SHT31;53015;50.046;8.238;2024-02-21T10:23:58;11.20;73.60
66213;SHT31;53015;50.046;8.238;2024-02-21T10:26:23;11.31;73.32
66213;SHT31;53015;50.046;8.238;2024-02-21T10:28:49;11.34;73.00
66213;SHT31;53015;50.046;8.238;2024-02-21T10:31:22;11.30;72.40
66213;SHT31;53015;50.046;8.238;2024-02-21T10:33:54;11.21;71.82
66213;SHT31;53015;50.046;8.238;2024-02-21T10:36:19;11.18;72.56
66213;SHT31;53015;50.046;8.238;2024-02-21T10:38:46;11.14;72.91
66213;SHT31;53015;50.046;8.238;2024-02-21T10:41:14;11.20;72.95
66213;SHT31;53015;50.046;8.238;2024-02-21T10:43:40;11.37;73.22
66213;SHT31;53015;50.046;8.238;2024-02-21T10:46:07;11.39;72.62
66213;SHT31;53015;50.046;8.238;2024-02-21T10:48:41;11.62;72.65
66213;SHT31;53015;50.046;8.238;2024-02-21T10:51:15;11.71;71.53
66213;SHT31;53015;50.046;8.238;2024-02-21T10:53:47;11.71;71.81
66213;SHT31;53015;50.046;8.238;2024-02-21T10:56:21;11.78;72.26
66213;SHT31;53015;50.046;8.238;2024-02-21T10:58:48;11.64;71.38
66213;SHT31;53015;50.046;8.238;2024-02-21T11:01:14;11.57;71.60
66213;SHT31;53015;50.046;8.238;2024-02-21T11:03:41;11.69;71.76
66213;SHT31;53015;50.046;8.238;2024-02-21T11:06:07;11.79;71.13
66213;SHT31;53015;50.046;8.238;2024-02-21T11:08:34;11.92;71.29
66213;SHT31;53015;50.046;8.238;2024-02-21T11:11:01;11.92;72.40
66213;SHT31;53015;50.046;8.238;2024-02-21T11:13:30;12.02;71.87
66213;SHT31;53015;50.046;8.238;2024-02-21T11:16:07;12.10;71.16
66213;SHT31;53015;50.046;8.238;2024-02-21T11:18:32;12.10;72.14
66213;SHT31;53015;50.046;8.238;2024-02-21T11:20:58;12.31;71.97
66213;SHT31;53015;50.046;8.238;2024-02-21T11:23:26;12.38;71.56
66213;SHT31;53015;50.046;8.238;2024-02-21T11:25:52;12.20;70.40
66213;SHT31;53015;50.046;8.238;2024-02-21T11:28:25;12.27;70.04
66213;SHT31;53015;50.046;8.238;2024-02-21T11:30:50;12.37;70.50
66213;SHT31;53015;50.046;8.238;2024-02-21T11:33:16;12.36;69.53
66213;SHT31;53015;50.046;8.238;2024-02-21T11:35:42;12.38;69.96
66213;SHT31;53015;50.046;8.238;2024-02-21T11:38:09;12.31;71.36
66213;SHT31;53015;50.046;8.238;2024-02-21T11:40:34;12.37;70.33
66213;SHT31;53015;50.046;8.238;2024-02-21T11:43:00;12.44;70.75
66213;SHT31;53015;50.046;8.238;2024-02-21T11:45:27;12.47;70.55
66213;SHT31;53015;50.046;8.238;2024-02-21T11:47:53;12.58;70.82
66213;SHT31;53015;50.046;8.238;2024-02-21T11:50:18;12.48;70.36
66213;SHT31;53015;50.046;8.238;2024-02-21T11:52:44;12.42;70.48
66213;SHT31;53015;50.046;8.238;2024-02-21T11:55:10;12.34;70.91
66213;SHT31;53015;50.046;8.238;2024-02-21T12:00:39;12.31;70.96
66213;SHT31;53015;50.046;8.238;2024-02-21T12:03:05;12.24;70.68
66213;SHT31;53015;50.046;8.238;2024-02-21T12:08:41;12.24;71.29
66213;SHT31;53015;50.046;8.238;2024-02-21T12:11:16;12.23;71.50
66213;SHT31;53015;50.046;8.238;2024-02-21T12:13:41;12.29;71.97
66213;SHT31;53015;50.046;8.238;2024-02-21T12:16:08;12.40;72.51
66213;SHT31;53015;50.046;8.238;2024-02-21T12:18:34;12.55;71.97
66213;SHT31;53015;50.046;8.238;2024-02-21T12:20:59;12.61;72.43
66213;SHT31;53015;50.046;8.238;2024-02-21T12:23:26;12.75;72.74
66213;SHT31;53015;50.046;8.238;2024-02-21T12:25:52;12.75;72.59
66213;SHT31;53015;50.046;8.238;2024-02-21T12:28:17;12.68;72.41
66213;SHT31;53015;50.046;8.238;2024-02-21T12:30:43;12.76;71.85
66213;SHT31;53015;50.046;8.238;2024-02-21T12:33:09;12.76;72.40
66213;SHT31;53015;50.046;8.238;2024-02-21T12:35:35;12.61;72.52
66213;SHT31;53015;50.046;8.238;2024-02-21T12:38:00;12.71;72.32
66213;SHT31;53015;50.046;8.238;2024-02-21T12:40:26;12.55;72.11
66213;SHT31;53015;50.046;8.238;2024-02-21T12:42:51;12.45;72.15
66213;SHT31;53015;50.046;8.238;2024-02-21T12:45:16;12.54;72.20
66213;SHT31;53015;50.046;8.238;2024-02-21T12:47:42;12.62;72.38
66213;SHT31;53015;50.046;8.238;2024-02-21T12:50:09;12.64;73.28
66213;SHT31;53015;50.046;8.238;2024-02-21T12:52:35;12.64;73.14
66213;SHT31;53015;50.046;8.238;2024-02-21T12:55:00;12.71;72.45
66213;SHT31;53015;50.046;8.238;2024-02-21T12:57:26;12.71;73.19
66213;SHT31;53015;50.046;8.238;2024-02-21T12:59:51;12.72;72.41
66213;SHT31;53015;50.046;8.238;2024-02-21T13:02:17;12.64;72.78
66213;SHT31;53015;50.046;8.238;2024-02-21T13:04:42;12.79;73.12
66213;SHT31;53015;50.046;8.238;2024-02-21T13:07:09;12.69;71.76
66213;SHT31;53015;50.046;8.238;2024-02-21T13:09:35;12.68;72.87
66213;SHT31;53015;50.046;8.238;2024-02-21T13:12:00;12.48;72.72
66213;SHT31;53015;50.046;8.238;2024-02-21T13:14:26;12.37;72.92
66213;SHT31;53015;50.046;8.238;2024-02-21T13:16:51;12.41;73.19
66213;SHT31;53015;50.046;8.238;2024-02-21T13:19:17;12.51;73.22
66213;SHT31;53015;50.046;8.238;2024-02-21T13:21:42;12.55;73.63
66213;SHT31;53015;50.046;8.238;2024-02-21T13:24:09;12.64;73.31
66213;SHT31;53015;50.046;8.238;2024-02-21T13:26:34;12.74;72.44
66213;SHT31;53015;50.046;8.238;2024-02-21T13:29:00;12.84;72.78
66213;SHT31;53015;50.046;8.238;2024-02-21T13:31:25;12.75;72.57
66213;SHT31;53015;50.046;8.238;2024-02-21T13:33:51;12.78;71.52
66213;SHT31;53015;50.046;8.238;2024-02-21T13:36:16;12.81;72.69
66213;SHT31;53015;50.046;8.238;2024-02-21T13:38:42;12.62;73.56
66213;SHT31;53015;50.046;8.238;2024-02-21T13:41:09;12.67;72.58
66213;SHT31;53015;50.046;8.238;2024-02-21T13:43:34;12.81;73.24
66213;SHT31;53015;50.046;8.238;2024-02-21T13:46:01;12.84;72.40
66213;SHT31;53015;50.046;8.238;2024-02-21T13:48:26;12.64;74.14
66213;SHT31;53015;50.046;8.238;2024-02-21T13:50:52;12.74;72.53
66213;SHT31;53015;50.046;8.238;2024-02-21T13:53:17;12.81;72.78
66213;SHT31;53015;50.046;8.238;2024-02-21T13:55:43;12.71;73.08
66213;SHT31;53015;50.046;8.238;2024-02-21T13:58:10;12.61;71.80
66213;SHT31;53015;50.046;8.238;2024-02-21T14:00:35;12.62;73.13
66213;SHT31;53015;50.046;8.238;2024-02-21T14:03:00;12.65;72.25
66213;SHT31;53015;50.046;8.238;2024-02-21T14:05:26;12.67;72.63
66213;SHT31;53015;50.046;8.238;2024-02-21T14:07:52;12.65;73.25
66213;SHT31;53015;50.046;8.238;2024-02-21T14:10:17;12.76;72.46
66213;SHT31;53015;50.046;8.238;2024-02-21T14:12:43;12.57;71.27
66213;SHT31;53015;50.046;8.238;2024-02-21T14:15:10;12.62;72.25
66213;SHT31;53015;50.046;8.238;2024-02-21T14:17:35;12.61;71.32
66213;SHT31;53015;50.046;8.238;2024-02-21T14:20:01;12.64;71.32
66213;SHT31;53015;50.046;8.238;2024-02-21T14:22:26;12.47;71.70
66213;SHT31;53015;50.046;8.238;2024-02-21T14:24:52;12.58;70.96
66213;SHT31;53015;50.046;8.238;2024-02-21T14:27:17;12.52;70.74
66213;SHT31;53015;50.046;8.238;2024-02-21T14:29:42;12.58;71.27
66213;SHT31;53015;50.046;8.238;2024-02-21T14:32:10;12.42;71.61
66213;SHT31;53015;50.046;8.238;2024-02-21T14:34:38;12.58;70.99
66213;SHT31;53015;50.046;8.238;2024-02-21T14:37:04;12.61;70.78
66213;SHT31;53015;50.046;8.238;2024-02-21T14:39:29;12.58;71.33
66213;SHT31;53015;50.046;8.238;2024-02-21T14:41:55;12.74;71.77
66213;SHT31;53015;50.046;8.238;2024-02-21T14:44:20;12.71;70.56
66213;SHT31;53015;50.046;8.238;2024-02-21T14:46:46;12.81;69.84
66213;SHT31;53015;50.046;8.238;2024-02-21T14:49:12;12.67;68.54
66213;SHT31;53015;50.046;8.238;2024-02-21T14:51:38;12.59;70.16
66213;SHT31;53015;50.046;8.238;2024-02-21T14:54:04;12.64;69.84
66213;SHT31;53015;50.046;8.238;2024-02-21T14:56:29;12.61;69.27
66213;SHT31;53015;50.046;8.238;2024-02-21T14:58:54;12.51;69.39
66213;SHT31;53015;50.046;8.238;2024-02-21T15:01:20;12.47;69.67
66213;SHT31;53015;50.046;8.238;2024-02-21T15:03:45;12.48;69.41
66213;SHT31;53015;50.046;8.238;2024-02-21T15:06:13;12.55;70.26
66213;SHT31;53015;50.046;8.238;2024-02-21T15:08:38;12.31;71.44
66213;SHT31;53015;50.046;8.238;2024-02-21T15:11:03;12.26;70.89
66213;SHT31;53015;50.046;8.238;2024-02-21T15:13:29;12.23;71.66
66213;SHT31;53015;50.046;8.238;2024-02-21T15:15:54;12.12;71.60
66213;SHT31;53015;50.046;8.238;2024-02-21T15:18:20;12.09;72.21
66213;SHT31;53015;50.046;8.238;2024-02-21T15:20:45;12.12;71.42
66213;SHT31;53015;50.046;8.238;2024-02-21T15:23:12;12.17;71.65
66213;SHT31;53015;50.046;8.238;2024-02-21T15:25:37;12.09;72.60
66213;SHT31;53015;50.046;8.238;2024-02-21T15:28:03;12.09;72.86
66213;SHT31;53015;50.046;8.238;2024-02-21T15:30:29;11.85;73.51
66213;SHT31;53015;50.046;8.238;2024-02-21T15:32:54;11.76;73.83
66213;SHT31;53015;50.046;8.238;2024-02-21T15:35:20;11.96;73.05
66213;SHT31;53015;50.046;8.238;2024-02-21T15:37:45;11.78;73.30